Time;durP1;ratioP1;P1;durP2;ratioP2;P2;SDS_P1;SDS_P2;PMS_P1;PMS_P2;Temp;Humidity;BMP_temperature;BMP_pressure;BME280_temperature;BME280_humidity;BME280_pressure;Samples;Min_cycle;Max_cycle;Signal;HPM_P1;HPM_P2
2023/05/14 00:16:19;;;;;;;0.70;0.30;;;15.90;45.80;;;;;;5306760;22;20479;-70
2023/05/14 00:18:47;;;;;;;0.60;0.10;;;15.90;55.00;;;;;;4981959;28;20955;-70
2023/05/14 00:21:16;;;;;;;0.60;0.10;;;15.80;55.60;;;;;;4976363;28;20493;-69
2023/05/14 00:23:46;;;;;;;0.60;0.10;;;15.80;55.70;;;;;;4973959;28;20454;-69
2023/05/14 00:26:13;;;;;;;0.60;0.10;;;15.80;46.60;;;;;;4974358;28;20477;-70
2023/05/14 00:28:41;;;;;;;0.60;0.10;;;15.80;46.40;;;;;;4973833;28;20444;-70
2023/05/14 00:31:09;;;;;;;0.60;0.10;;;15.80;57.60;;;;;;4974624;28;20486;-70
2023/05/14 00:33:38;;;;;;;0.60;0.10;;;;;;;;;;4973305;28;20447;-69
2023/05/14 00:36:07;;;;;;;0.60;0.20;;;15.60;48.90;;;;;;4973367;28;20679;-69
2023/05/14 00:38:35;;;;;;;0.60;0.13;;;15.50;60.90;;;;;;4973581;28;20459;-68
2023/05/14 00:41:03;;;;;;;0.60;0.10;;;15.50;53.70;;;;;;4996751;23;21033;-75
2023/05/14 00:43:32;;;;;;;0.60;0.10;;;15.50;54.30;;;;;;4972886;28;20447;-74
2023/05/14 00:46:00;;;;;;;0.60;0.20;;;15.40;55.00;;;;;;4973473;28;20950;-75
2023/05/14 00:48:28;;;;;;;3.47;0.97;;;15.40;56.70;;;;;;4972889;28;20459;-74
2023/05/14 00:50:57;;;;;;;0.97;0.40;;;;;;;;;;4972816;28;20882;-75
2023/05/14 00:53:25;;;;;;;0.60;0.10;;;;;;;;;;4973424;28;20454;-74
2023/05/14 00:55:55;;;;;;;0.60;0.30;;;15.30;58.50;;;;;;4974003;28;20830;-74
2023/05/14 00:58:24;;;;;;;0.60;0.30;;;15.20;60.40;;;;;;4972613;28;20453;-74
2023/05/14 01:00:52;;;;;;;0.60;0.10;;;15.20;61.30;;;;;;4972935;28;20483;-74
2023/05/14 01:03:20;;;;;;;0.60;0.20;;;;;;;;;;4975098;28;20903;-75
2023/05/14 01:05:59;;;;;;;0.60;0.20;;;15.10;65.30;;;;;;4980931;28;20456;-74
2023/05/14 01:08:36;;;;;;;0.60;0.10;;;15.00;68.30;;;;;;4982807;28;20448;-74
2023/05/14 01:11:10;;;;;;;0.60;0.10;;;15.00;70.60;;;;;;4975111;28;20466;-75
2023/05/14 01:13:49;;;;;;;0.60;0.10;;;14.90;73.10;;;;;;4976340;28;20456;-74
2023/05/14 01:16:19;;;;;;;0.60;0.20;;;14.90;73.30;;;;;;4976801;28;20451;-77
2023/05/14 01:18:50;;;;;;;0.70;0.40;;;14.90;76.60;;;;;;4976495;28;20471;-76
2023/05/14 01:21:39;;;;;;;0.60;0.10;;;14.80;76.90;;;;;;4976781;28;20517;-75
2023/05/14 01:24:08;;;;;;;0.60;0.10;;;14.80;79.30;;;;;;4976394;28;20496;-75
2023/05/14 01:26:36;;;;;;;0.60;0.10;;;14.80;80.30;;;;;;4956491;28;20819;-75
2023/05/14 01:29:13;;;;;;;0.60;0.13;;;14.80;82.80;;;;;;4956525;28;20541;-76
2023/05/14 01:31:44;;;;;;;0.60;0.20;;;14.70;85.00;;;;;;4957064;28;20490;-74
2023/05/14 01:34:14;;;;;;;0.60;0.10;;;14.70;86.10;;;;;;4956543;29;20468;-74
2023/05/14 01:36:43;;;;;;;0.60;0.10;;;14.70;87.80;;;;;;4958897;28;20451;-74
2023/05/14 01:39:14;;;;;;;0.60;0.20;;;14.70;88.70;;;;;;4959884;28;20451;-74
2023/05/14 01:41:42;;;;;;;0.60;0.10;;;14.70;88.90;;;;;;4958118;28;20477;-74
2023/05/14 01:44:11;;;;;;;0.70;0.53;;;;;;;;;;4959388;28;20452;-74
2023/05/14 01:46:38;;;;;;;0.60;0.10;;;14.70;89.50;;;;;;4956778;29;20447;-73
2023/05/14 01:49:06;;;;;;;0.60;0.10;;;14.60;90.40;;;;;;4963065;28;20939;-74
2023/05/14 01:51:34;;;;;;;0.60;0.30;;;14.60;90.50;;;;;;4976035;28;20477;-74
2023/05/14 01:54:04;;;;;;;0.60;0.20;;;14.50;90.90;;;;;;4975551;28;20452;-76
2023/05/14 01:56:32;;;;;;;0.60;0.10;;;14.50;91.60;;;;;;4976137;28;20451;-74
2023/05/14 01:58:59;;;;;;;0.60;0.10;;;14.50;92.10;;;;;;4976047;28;20486;-75
2023/05/14 02:01:28;;;;;;;0.60;0.23;;;;;;;;;;4975927;28;20468;-74
2023/05/14 02:03:55;;;;;;;0.60;0.20;;;14.50;93.50;;;;;;4975423;28;20946;-75
2023/05/14 02:06:24;;;;;;;0.60;0.10;;;;;;;;;;4975808;28;20462;-75
2023/05/14 02:08:51;;;;;;;0.60;0.10;;;14.50;92.90;;;;;;4975739;28;20870;-75
2023/05/14 02:11:21;;;;;;;0.60;0.10;;;14.50;93.20;;;;;;4976419;28;20840;-75
2023/05/14 02:13:49;;;;;;;0.60;0.10;;;14.50;93.60;;;;;;4977039;28;20446;-75
2023/05/14 02:16:18;;;;;;;0.60;0.10;;;14.50;94.00;;;;;;4977057;28;20454;-75
2023/05/14 02:18:45;;;;;;;0.60;0.20;;;14.50;93.40;;;;;;4977309;28;20952;-75
2023/05/14 02:21:14;;;;;;;0.60;0.10;;;;;;;;;;4976730;28;20526;-75
2023/05/14 02:23:43;;;;;;;0.60;0.20;;;14.40;92.50;;;;;;4976149;28;20836;-75
2023/05/14 02:26:11;;;;;;;0.60;0.20;;;14.40;92.80;;;;;;4976487;28;20453;-75
2023/05/14 02:28:40;;;;;;;0.60;0.10;;;14.30;92.90;;;;;;4976913;28;20455;-74
2023/05/14 02:31:08;;;;;;;0.60;0.10;;;;;;;;;;4976134;28;20464;-75
2023/05/14 02:33:36;;;;;;;0.60;0.10;;;14.30;92.70;;;;;;4976078;28;20593;-75
2023/05/14 02:36:04;;;;;;;0.60;0.10;;;14.20;93.50;;;;;;4976960;28;20480;-74
2023/05/14 02:38:32;;;;;;;0.60;0.20;;;14.20;94.10;;;;;;4976897;28;20541;-75
2023/05/14 02:41:00;;;;;;;0.60;0.10;;;14.10;94.40;;;;;;4978507;28;20477;-75
2023/05/14 02:43:28;;;;;;;0.60;0.10;;;14.10;94.20;;;;;;4977560;28;20863;-75
2023/05/14 02:45:57;;;;;;;0.60;0.20;;;14.10;94.10;;;;;;4980127;28;20476;-74
2023/05/14 02:48:25;;;;;;;0.60;0.10;;;14.00;94.90;;;;;;4976298;28;20450;-75
2023/05/14 02:50:52;;;;;;;0.60;0.10;;;14.00;94.70;;;;;;4975187;28;20477;-75
2023/05/14 02:53:20;;;;;;;0.70;0.10;;;14.00;94.80;;;;;;4975021;28;20482;-75
2023/05/14 02:55:48;;;;;;;0.60;0.20;;;14.00;95.20;;;;;;4974925;28;20950;-74
2023/05/14 02:58:16;;;;;;;0.60;0.10;;;13.90;94.60;;;;;;4975229;28;20443;-74
2023/05/14 03:00:44;;;;;;;0.60;0.30;;;13.80;94.70;;;;;;4974444;28;20487;-74
2023/05/14 03:03:13;;;;;;;0.70;0.40;;;13.70;96.40;;;;;;4974998;28;20880;-74
2023/05/14 03:05:42;;;;;;;0.60;0.10;;;13.70;97.40;;;;;;4975440;28;20460;-74
2023/05/14 03:08:10;;;;;;;0.60;0.20;;;13.60;98.20;;;;;;4974955;28;20456;-74
2023/05/14 03:10:37;;;;;;;0.60;0.10;;;13.60;98.60;;;;;;4973156;28;20500;-74
2023/05/14 03:13:05;;;;;;;0.60;0.10;;;13.60;99.50;;;;;;4973628;28;20525;-76
2023/05/14 03:15:33;;;;;;;0.60;0.10;;;13.60;99.20;;;;;;4974087;28;20580;-74
2023/05/14 03:18:01;;;;;;;0.60;0.27;;;13.60;99.90;;;;;;4974679;28;20826;-74
2023/05/14 03:20:30;;;;;;;0.67;0.40;;;13.60;99.90;;;;;;4974680;28;20477;-75
2023/05/14 03:22:58;;;;;;;0.70;0.37;;;;;;;;;;4974193;28;20450;-75
2023/05/14 03:25:26;;;;;;;0.60;0.40;;;13.50;99.90;;;;;;4974739;28;20496;-75
2023/05/14 03:27:54;;;;;;;0.60;0.10;;;13.60;99.90;;;;;;4974227;28;20508;-75
2023/05/14 03:30:22;;;;;;;0.60;0.10;;;13.60;99.90;;;;;;4975932;28;20979;-75
2023/05/14 03:32:50;;;;;;;0.60;0.10;;;13.60;99.90;;;;;;4974707;28;20489;-74
2023/05/14 03:35:18;;;;;;;0.60;0.20;;;13.60;99.90;;;;;;4974225;28;20630;-75
2023/05/14 03:37:48;;;;;;;0.60;0.10;;;;;;;;;;4976463;28;20464;-74
2023/05/14 03:40:16;;;;;;;0.60;0.30;;;13.50;99.90;;;;;;4974719;28;20500;-74
2023/05/14 03:42:44;;;;;;;0.60;0.10;;;13.50;99.90;;;;;;4974295;28;20499;-74
2023/05/14 03:45:12;;;;;;;0.60;0.10;;;13.50;99.90;;;;;;4974449;28;20469;-74
2023/05/14 03:47:39;;;;;;;0.60;0.20;;;13.50;99.90;;;;;;4974541;28;20449;-75
2023/05/14 03:50:08;;;;;;;0.70;0.47;;;;;;;;;;4974673;28;20486;-75
2023/05/14 03:52:36;;;;;;;0.60;0.10;;;13.60;99.90;;;;;;4974469;28;20493;-74
2023/05/14 03:55:06;;;;;;;0.70;0.30;;;13.60;99.90;;;;;;4974531;28;20457;-75
2023/05/14 03:57:34;;;;;;;0.60;0.10;;;13.50;99.90;;;;;;4974479;28;20457;-76
2023/05/14 04:00:02;;;;;;;1.33;1.23;;;13.50;99.90;;;;;;4974309;28;20473;-75
2023/05/14 04:02:30;;;;;;;0.60;0.10;;;13.40;99.90;;;;;;4972932;28;20450;-75
2023/05/14 04:04:58;;;;;;;0.60;0.20;;;13.50;99.90;;;;;;4974128;28;20460;-74
2023/05/14 04:07:26;;;;;;;0.60;0.10;;;13.40;99.90;;;;;;4974455;28;20461;-74
2023/05/14 04:09:53;;;;;;;0.60;0.30;;;13.40;99.90;;;;;;4976886;28;21003;-74
2023/05/14 04:12:22;;;;;;;0.60;0.10;;;13.40;99.90;;;;;;4958567;28;20465;-74
2023/05/14 04:14:50;;;;;;;1.17;0.83;;;13.30;99.90;;;;;;4976373;28;20487;-74
2023/05/14 04:17:19;;;;;;;0.60;0.20;;;;;;;;;;4976944;28;20921;-74
2023/05/14 04:19:46;;;;;;;0.60;0.10;;;13.30;99.90;;;;;;4973361;28;20465;-74
2023/05/14 04:22:14;;;;;;;0.60;0.20;;;13.20;99.90;;;;;;4973266;28;20973;-75
2023/05/14 04:24:42;;;;;;;0.60;0.10;;;13.30;99.90;;;;;;4973411;28;20447;-75
2023/05/14 04:27:10;;;;;;;0.60;0.10;;;;;;;;;;4973534;28;20456;-74
2023/05/14 04:29:39;;;;;;;0.80;0.20;;;13.30;99.90;;;;;;4973279;28;20449;-75
2023/05/14 04:32:08;;;;;;;0.60;0.10;;;;;;;;;;4973168;28;20954;-74
2023/05/14 04:34:36;;;;;;;0.60;0.10;;;13.30;99.90;;;;;;4973049;28;20494;-76
2023/05/14 04:37:04;;;;;;;0.60;0.10;;;13.20;99.90;;;;;;4973493;28;21207;-75
2023/05/14 04:39:32;;;;;;;1.23;0.30;;;;;;;;;;4972939;28;20452;-75
2023/05/14 04:42:00;;;;;;;0.60;0.10;;;13.30;99.90;;;;;;4973147;28;20840;-75
2023/05/14 04:44:28;;;;;;;0.60;0.10;;;;;;;;;;4973025;28;20506;-74
2023/05/14 04:46:57;;;;;;;0.60;0.10;;;13.30;99.90;;;;;;4973570;28;20506;-75
2023/05/14 04:49:26;;;;;;;0.60;0.10;;;;;;;;;;4977220;28;20882;-74
2023/05/14 04:51:53;;;;;;;0.60;0.17;;;13.30;99.90;;;;;;4977460;28;20467;-75
2023/05/14 04:54:22;;;;;;;1.93;0.80;;;;;;;;;;4976336;28;20479;-75
2023/05/14 04:56:50;;;;;;;0.60;0.20;;;13.20;99.90;;;;;;4976458;28;20459;-75
2023/05/14 04:59:18;;;;;;;0.60;0.10;;;13.20;99.90;;;;;;4975547;28;20515;-75
2023/05/14 05:01:45;;;;;;;2.30;0.77;;;13.60;99.90;;;;;;4975669;28;20480;-75
2023/05/14 05:04:15;;;;;;;1.07;0.67;;;13.20;99.90;;;;;;4975778;28;20933;-75
2023/05/14 05:06:43;;;;;;;0.60;0.30;;;;;;;;;;4976612;28;20452;-74
2023/05/14 05:09:11;;;;;;;0.60;0.10;;;13.10;99.90;;;;;;4976011;28;20542;-74
2023/05/14 05:11:39;;;;;;;0.60;0.10;;;;;;;;;;4975517;28;20475;-74
2023/05/14 05:14:07;;;;;;;0.60;0.30;;;13.30;99.90;;;;;;4960817;28;20493;-74
2023/05/14 05:16:35;;;;;;;1.00;0.50;;;13.40;99.90;;;;;;4957585;28;20456;-75
2023/05/14 05:19:03;;;;;;;0.60;0.10;;;;;;;;;;4956988;28;20457;-75
2023/05/14 05:21:32;;;;;;;0.60;0.10;;;13.60;99.90;;;;;;4962038;28;20532;-75
2023/05/14 05:24:01;;;;;;;0.70;0.30;;;;;;;;;;4975618;28;20464;-75
2023/05/14 05:26:28;;;;;;;0.80;0.70;;;13.70;99.90;;;;;;4975863;28;20442;-75
2023/05/14 05:28:56;;;;;;;0.60;0.13;;;13.70;99.90;;;;;;4976529;28;20464;-75
2023/05/14 05:31:24;;;;;;;0.60;0.20;;;13.80;99.90;;;;;;4976574;28;20559;-75
2023/05/14 05:33:52;;;;;;;0.60;0.20;;;;;;;;;;4975697;28;20476;-75
2023/05/14 05:36:21;;;;;;;0.73;0.57;;;;;;;;;;4976141;28;20445;-75
2023/05/14 05:38:50;;;;;;;0.97;0.67;;;13.70;99.90;;;;;;4975901;28;20843;-74
2023/05/14 05:41:17;;;;;;;0.60;0.10;;;13.60;99.90;;;;;;4975608;28;21251;-74
2023/05/14 05:43:45;;;;;;;0.60;0.17;;;13.50;99.90;;;;;;4975463;28;20952;-76
2023/05/14 05:46:13;;;;;;;1.13;1.03;;;13.50;99.90;;;;;;4975543;28;20456;-75
2023/05/14 05:48:41;;;;;;;0.60;0.10;;;13.50;99.90;;;;;;4975344;28;20489;-76
2023/05/14 05:51:09;;;;;;;0.60;0.10;;;13.60;99.90;;;;;;4975569;28;20832;-75
2023/05/14 05:53:37;;;;;;;0.60;0.10;;;;;;;;;;4974866;28;20449;-75
2023/05/14 05:56:07;;;;;;;0.70;0.53;;;13.70;99.90;;;;;;4975808;28;20818;-76
2023/05/14 05:58:35;;;;;;;0.70;0.63;;;13.90;99.90;;;;;;4975643;28;20449;-75
2023/05/14 06:01:03;;;;;;;0.90;0.47;;;14.00;99.90;;;;;;4975620;28;20936;-75
2023/05/14 06:03:30;;;;;;;0.60;0.20;;;14.10;99.90;;;;;;4975505;28;20478;-75
2023/05/14 06:05:58;;;;;;;0.60;0.10;;;14.20;99.90;;;;;;4975627;28;20449;-75
2023/05/14 06:08:26;;;;;;;0.60;0.20;;;14.30;99.90;;;;;;4975594;28;20955;-75
2023/05/14 06:10:54;;;;;;;0.60;0.10;;;14.40;99.90;;;;;;4975224;28;21067;-74
2023/05/14 06:13:23;;;;;;;0.60;0.10;;;14.50;99.90;;;;;;4975439;28;20448;-74
2023/05/14 06:15:51;;;;;;;0.70;0.57;;;;;;;;;;4974978;28;20485;-75
2023/05/14 06:18:19;;;;;;;0.60;0.20;;;;;;;;;;4977737;28;20461;-75
2023/05/14 06:20:47;;;;;;;0.60;0.10;;;;;;;;;;4974760;28;20848;-74
2023/05/14 06:23:15;;;;;;;0.60;0.10;;;14.60;98.00;;;;;;4980887;28;20446;-75
2023/05/14 06:25:43;;;;;;;0.60;0.10;;;14.50;96.60;;;;;;4984599;28;20876;-75
2023/05/14 06:28:11;;;;;;;0.60;0.10;;;14.60;98.10;;;;;;4986030;28;20501;-75
2023/05/14 06:30:41;;;;;;;0.70;0.27;;;14.60;98.00;;;;;;4985472;28;20474;-75
2023/05/14 06:33:08;;;;;;;0.60;0.23;;;14.60;97.60;;;;;;4986340;28;20470;-75
2023/05/14 06:35:36;;;;;;;0.60;0.10;;;14.60;98.10;;;;;;4983530;28;20493;-75
2023/05/14 06:38:04;;;;;;;0.60;0.20;;;14.60;97.40;;;;;;4994425;28;20448;-75
2023/05/14 06:40:32;;;;;;;0.60;0.10;;;14.60;97.40;;;;;;4997587;28;20897;-75
2023/05/14 06:43:00;;;;;;;0.60;0.10;;;14.60;98.30;;;;;;4984417;28;20890;-75
2023/05/14 06:45:27;;;;;;;0.80;0.50;;;14.70;97.30;;;;;;4976836;28;20444;-75
2023/05/14 06:47:58;;;;;;;0.60;0.10;;;14.80;97.80;;;;;;4987494;28;20790;-74
2023/05/14 06:50:26;;;;;;;0.80;0.50;;;14.90;97.10;;;;;;4987977;28;20491;-76
2023/05/14 06:52:54;;;;;;;0.70;0.37;;;15.00;96.20;;;;;;4979214;28;20444;-75
2023/05/14 06:55:23;;;;;;;1.63;0.83;;;14.90;94.70;;;;;;4990995;28;20478;-74
2023/05/14 06:57:51;;;;;;;0.60;0.10;;;14.90;95.90;;;;;;4991232;28;20449;-75
2023/05/14 07:00:20;;;;;;;0.60;0.10;;;14.90;95.50;;;;;;4986512;28;20524;-76
2023/05/14 07:02:49;;;;;;;0.60;0.13;;;15.00;96.80;;;;;;4975343;28;20437;-75
2023/05/14 07:05:18;;;;;;;0.60;0.13;;;15.10;96.60;;;;;;4974674;28;20959;-75
2023/05/14 07:07:46;;;;;;;0.60;0.10;;;15.10;95.40;;;;;;4975352;28;20451;-74
2023/05/14 07:10:14;;;;;;;0.60;0.10;;;15.20;94.70;;;;;;4973194;28;20858;-75
2023/05/14 07:12:42;;;;;;;0.60;0.10;;;15.20;93.70;;;;;;4976806;28;20455;-74
2023/05/14 07:15:11;;;;;;;0.60;0.10;;;15.20;94.40;;;;;;4963922;28;20487;-75
2023/05/14 07:17:38;;;;;;;0.60;0.40;;;15.20;95.00;;;;;;4956615;28;20891;-75
2023/05/14 07:20:07;;;;;;;0.90;0.50;;;14.20;94.10;;;;;;4955126;28;20478;-75
2023/05/14 07:22:37;;;;;;;1.10;0.90;;;15.30;94.60;;;;;;4954900;28;20962;-75
2023/05/14 07:25:06;;;;;;;3.07;0.77;;;15.20;95.30;;;;;;4955352;28;20446;-75
2023/05/14 07:27:34;;;;;;;0.80;0.57;;;15.20;96.10;;;;;;4955198;28;20942;-75
2023/05/14 07:30:03;;;;;;;0.60;0.30;;;15.30;94.70;;;;;;4954995;28;20476;-77
2023/05/14 07:32:30;;;;;;;0.60;0.10;;;15.30;94.30;;;;;;4954666;28;20469;-77
2023/05/14 07:34:58;;;;;;;2.10;1.90;;;15.40;94.90;;;;;;4955445;28;21027;-76
2023/05/14 07:37:26;;;;;;;1.67;0.73;;;15.30;95.10;;;;;;4955531;28;20448;-76
2023/05/14 07:39:56;;;;;;;0.60;0.10;;;;;;;;;;4954721;28;20899;-77
2023/05/14 07:42:23;;;;;;;4.23;1.33;;;15.50;96.20;;;;;;4955069;28;20456;-77
2023/05/14 07:45:03;;;;;;;1.20;1.10;;;15.50;94.00;;;;;;4955342;28;20456;-76
2023/05/14 07:47:31;;;;;;;0.60;0.10;;;;;;;;;;4973634;28;20513;-76
2023/05/14 07:50:00;;;;;;;0.60;0.10;;;;;;;;;;4975074;28;20548;-77
2023/05/14 07:52:27;;;;;;;0.60;0.17;;;15.60;97.90;;;;;;4974183;28;20654;-76
2023/05/14 07:54:57;;;;;;;1.00;0.57;;;15.70;96.00;;;;;;4963553;28;20482;-76
2023/05/14 07:57:25;;;;;;;0.60;0.10;;;15.80;95.90;;;;;;4973633;28;20452;-77
2023/05/14 07:59:53;;;;;;;0.60;0.20;;;15.90;95.60;;;;;;4975046;28;20475;-77
2023/05/14 08:02:21;;;;;;;2.07;0.30;;;;;;;;;;4974869;28;20452;-77
2023/05/14 08:04:49;;;;;;;0.63;0.47;;;16.00;94.30;;;;;;4974502;28;20453;-77
2023/05/14 08:07:17;;;;;;;0.70;0.37;;;;;;;;;;4982232;28;20524;-77
2023/05/14 08:09:45;;;;;;;0.70;0.20;;;16.10;93.80;;;;;;4969999;28;20467;-76
2023/05/14 08:12:14;;;;;;;0.60;0.30;;;16.10;91.10;;;;;;4979429;28;20450;-76
2023/05/14 08:14:42;;;;;;;0.60;0.10;;;16.10;91.00;;;;;;4979232;28;20587;-76
2023/05/14 08:17:10;;;;;;;0.60;0.20;;;16.20;90.50;;;;;;4973003;28;20465;-76
2023/05/14 08:19:38;;;;;;;0.60;0.30;;;16.20;90.20;;;;;;4970151;28;20447;-76
2023/05/14 08:22:06;;;;;;;0.80;0.60;;;16.20;90.10;;;;;;4983203;28;20966;-76
2023/05/14 08:24:34;;;;;;;0.60;0.10;;;16.20;90.40;;;;;;4982380;28;20525;-76
2023/05/14 08:27:02;;;;;;;0.60;0.10;;;16.20;85.70;;;;;;4986336;28;20441;-76
2023/05/14 08:29:31;;;;;;;1.00;0.50;;;16.30;87.50;;;;;;4980855;28;20956;-76
2023/05/14 08:32:00;;;;;;;0.60;0.10;;;;;;;;;;4986490;28;20555;-76
2023/05/14 08:34:42;;;;;;;0.70;0.37;;;16.60;87.70;;;;;;4982894;28;20443;-77
2023/05/14 08:37:11;;;;;;;0.60;0.10;;;;;;;;;;4979054;28;21041;-77
2023/05/14 08:39:39;;;;;;;0.80;0.20;;;16.80;72.00;;;;;;4982172;28;20459;-77
2023/05/14 08:42:07;;;;;;;0.60;0.10;;;16.90;69.00;;;;;;4986608;28;20468;-79
2023/05/14 08:44:44;;;;;;;0.60;0.10;;;17.10;65.80;;;;;;4989529;28;20511;-79
2023/05/14 08:47:15;;;;;;;0.60;0.20;;;17.20;64.70;;;;;;4976056;28;20496;-78
2023/05/14 08:49:46;;;;;;;0.80;0.20;;;17.30;65.10;;;;;;4993030;28;20452;-78
2023/05/14 08:52:18;;;;;;;0.60;0.10;;;17.40;65.30;;;;;;4987303;28;20924;-79
2023/05/14 08:54:47;;;;;;;0.60;0.30;;;17.40;64.30;;;;;;4998986;28;20469;-77
2023/05/14 08:57:18;;;;;;;0.70;0.50;;;17.40;63.40;;;;;;4985094;28;20866;-79
2023/05/14 08:59:48;;;;;;;0.60;0.10;;;17.50;65.30;;;;;;4985899;28;20489;-78
2023/05/14 09:02:17;;;;;;;0.73;0.30;;;17.40;59.70;;;;;;4994264;28;20462;-76
2023/05/14 09:04:47;;;;;;;0.70;0.40;;;17.30;57.70;;;;;;4999475;28;20448;-78
2023/05/14 09:07:15;;;;;;;2.87;1.80;;;;;;;;;;4996664;28;20444;-78
2023/05/14 09:09:44;;;;;;;1.80;1.33;;;17.20;58.80;;;;;;4999913;28;20551;-78
2023/05/14 09:12:12;;;;;;;0.60;0.10;;;17.10;55.00;;;;;;4977706;28;20445;-78
2023/05/14 09:14:40;;;;;;;0.60;0.20;;;17.10;57.30;;;;;;4957623;29;20460;-76
2023/05/14 09:17:11;;;;;;;1.00;0.40;;;;;;;;;;4958614;28;20485;-77
2023/05/14 09:19:39;;;;;;;0.83;0.20;;;17.00;54.60;;;;;;4958454;28;20468;-77
2023/05/14 09:22:09;;;;;;;0.70;0.43;;;17.30;61.40;;;;;;4957855;28;20446;-78
2023/05/14 09:24:38;;;;;;;0.70;0.20;;;;;;;;;;4961453;28;20453;-76
2023/05/14 09:27:06;;;;;;;0.70;0.47;;;17.30;52.40;;;;;;4958486;28;20455;-76
2023/05/14 09:29:35;;;;;;;0.60;0.20;;;17.30;55.80;;;;;;4960738;28;20479;-77
2023/05/14 09:32:06;;;;;;;0.60;0.10;;;17.30;56.80;;;;;;4956888;28;20818;-78
2023/05/14 09:34:37;;;;;;;0.60;0.10;;;17.40;57.00;;;;;;4972147;28;20441;-71
2023/05/14 09:37:06;;;;;;;1.23;1.13;;;17.30;52.00;;;;;;4975196;28;20487;-76
2023/05/14 09:39:36;;;;;;;2.50;1.03;;;17.40;43.70;;;;;;4975097;28;20444;-76
2023/05/14 09:42:04;;;;;;;0.60;0.10;;;;;;;;;;4975548;28;20557;-77
2023/05/14 09:44:35;;;;;;;0.60;0.10;;;;;;;;;;4975309;28;20445;-76
2023/05/14 09:47:06;;;;;;;2.73;2.50;;;;;;;;;;4975150;28;20946;-76
2023/05/14 09:49:35;;;;;;;1.13;0.47;;;17.60;34.50;;;;;;4973535;28;20454;-75
2023/05/14 09:52:06;;;;;;;0.60;0.10;;;17.50;36.30;;;;;;4968458;28;20523;-76
2023/05/14 09:54:35;;;;;;;0.60;0.10;;;17.60;37.60;;;;;;4976796;28;20452;-77
2023/05/14 09:57:03;;;;;;;0.60;0.10;;;;;;;;;;4975273;28;20484;-76
2023/05/14 09:59:31;;;;;;;0.60;0.10;;;17.30;28.80;;;;;;4975614;28;20937;-75
2023/05/14 10:01:59;;;;;;;0.60;0.20;;;17.30;28.40;;;;;;4975509;28;20453;-77
2023/05/14 10:04:28;;;;;;;0.60;0.20;;;17.40;26.60;;;;;;4975099;28;20952;-76
2023/05/14 10:06:57;;;;;;;0.60;0.10;;;17.50;28.80;;;;;;4975759;28;20966;-76
2023/05/14 10:09:29;;;;;;;0.60;0.10;;;17.70;29.20;;;;;;4972818;28;20473;-76
2023/05/14 10:12:00;;;;;;;0.60;0.20;;;17.80;27.10;;;;;;4974327;28;20943;-76
2023/05/14 10:14:35;;;;;;;1.07;0.30;;;17.90;25.50;;;;;;4968646;28;20447;-77
2023/05/14 10:17:05;;;;;;;0.60;0.20;;;17.80;23.60;;;;;;4975335;28;20574;-77
2023/05/14 10:19:34;;;;;;;1.47;0.90;;;17.80;24.20;;;;;;4975226;28;20453;-76
2023/05/14 10:22:07;;;;;;;0.60;0.10;;;17.90;23.80;;;;;;4975951;28;20445;-77
2023/05/14 10:24:37;;;;;;;0.60;0.10;;;18.00;23.30;;;;;;4975353;28;20962;-77
2023/05/14 10:27:06;;;;;;;0.60;0.10;;;18.00;22.70;;;;;;4975486;28;20453;-76
2023/05/14 10:29:34;;;;;;;1.17;0.97;;;18.20;24.80;;;;;;4974972;28;20481;-77
2023/05/14 10:32:05;;;;;;;0.60;0.13;;;18.20;22.10;;;;;;4973307;28;20473;-76
2023/05/14 10:34:36;;;;;;;0.60;0.10;;;18.40;24.70;;;;;;4975648;28;20452;-78
2023/05/14 10:37:07;;;;;;;0.60;0.20;;;18.40;22.30;;;;;;4975031;28;20480;-77
2023/05/14 10:39:46;;;;;;;0.60;0.10;;;18.40;23.50;;;;;;4974905;28;20452;-76
2023/05/14 10:42:17;;;;;;;0.60;0.20;;;18.50;23.30;;;;;;4975107;28;20456;-76
2023/05/14 10:44:54;;;;;;;0.60;0.10;;;18.50;23.60;;;;;;4974816;28;20600;-77
2023/05/14 10:47:22;;;;;;;0.60;0.30;;;18.60;23.30;;;;;;4975375;28;20516;-77
2023/05/14 10:49:55;;;;;;;0.60;0.10;;;18.60;25.00;;;;;;4975440;28;20466;-76
2023/05/14 10:52:25;;;;;;;0.70;0.37;;;18.60;23.60;;;;;;4975877;28;20438;-78
2023/05/14 10:54:55;;;;;;;0.60;0.20;;;18.50;22.40;;;;;;4975550;28;20819;-77
2023/05/14 10:57:24;;;;;;;1.33;0.97;;;18.40;22.10;;;;;;4974736;28;20481;-77
2023/05/14 10:59:55;;;;;;;0.60;0.10;;;18.40;19.10;;;;;;4975541;28;20472;-78
2023/05/14 11:02:26;;;;;;;0.60;0.10;;;18.30;21.20;;;;;;4976455;28;20518;-75
2023/05/14 11:04:59;;;;;;;1.03;0.93;;;18.40;24.40;;;;;;4974833;28;20568;-75
2023/05/14 11:07:33;;;;;;;0.60;0.27;;;18.50;27.90;;;;;;4974964;28;20454;-77
2023/05/14 11:10:04;;;;;;;0.80;0.30;;;18.60;30.80;;;;;;4975083;28;20472;-77
2023/05/14 11:12:33;;;;;;;0.60;0.10;;;18.70;28.00;;;;;;4972032;28;20463;-77
2023/05/14 11:15:02;;;;;;;0.60;0.20;;;18.80;28.50;;;;;;4956099;28;20992;-74
2023/05/14 11:17:31;;;;;;;0.60;0.10;;;18.80;33.80;;;;;;4971101;28;20588;-74
2023/05/14 11:20:00;;;;;;;0.60;0.10;;;18.80;32.10;;;;;;4964017;28;20507;-73
2023/05/14 11:22:28;;;;;;;0.60;0.10;;;18.90;36.30;;;;;;4954716;29;20443;-73
2023/05/14 11:24:57;;;;;;;0.60;0.20;;;19.00;34.90;;;;;;4954290;29;20454;-74
2023/05/14 11:27:26;;;;;;;0.60;0.10;;;19.00;32.70;;;;;;4954655;29;20454;-77
2023/05/14 11:29:54;;;;;;;0.60;0.20;;;19.00;30.10;;;;;;4955140;28;20891;-76
2023/05/14 11:32:22;;;;;;;0.60;0.10;;;19.00;26.70;;;;;;4955531;29;20541;-76
2023/05/14 11:34:50;;;;;;;0.60;0.10;;;19.10;28.00;;;;;;4955595;29;20454;-76
2023/05/14 11:37:19;;;;;;;0.60;0.10;;;19.10;26.00;;;;;;4954879;29;20493;-76
2023/05/14 11:39:48;;;;;;;0.60;0.20;;;19.20;24.70;;;;;;4955749;29;22520;-77
2023/05/14 11:42:18;;;;;;;0.60;0.10;;;19.20;24.50;;;;;;4955781;29;20510;-78
2023/05/14 11:44:48;;;;;;;0.60;0.13;;;19.20;26.10;;;;;;4955475;28;20480;-77
2023/05/14 11:47:17;;;;;;;0.70;0.30;;;23.90;25.20;;;;;;4974560;28;20550;-77
2023/05/14 11:49:45;;;;;;;0.90;0.40;;;19.00;19.10;;;;;;4973755;28;20839;-76
2023/05/14 11:52:18;;;;;;;0.60;0.10;;;19.00;21.90;;;;;;4973646;28;20472;-78
2023/05/14 11:54:46;;;;;;;0.70;0.30;;;19.00;22.50;;;;;;4973872;28;20456;-76
2023/05/14 11:57:16;;;;;;;0.70;0.40;;;19.00;21.50;;;;;;4973107;28;20539;-76
2023/05/14 11:59:47;;;;;;;0.90;0.20;;;19.10;23.30;;;;;;4973623;28;20822;-74
2023/05/14 12:02:17;;;;;;;0.60;0.20;;;19.20;20.70;;;;;;4973327;28;20955;-78
2023/05/14 12:04:49;;;;;;;0.90;0.67;;;19.10;20.90;;;;;;4974217;28;20453;-76
2023/05/14 12:07:18;;;;;;;0.60;0.20;;;19.20;22.70;;;;;;4974164;28;20452;-78
2023/05/14 12:09:48;;;;;;;0.80;0.20;;;19.10;21.40;;;;;;4973448;28;20449;-77
2023/05/14 12:12:18;;;;;;;0.60;0.13;;;19.10;21.00;;;;;;4972955;28;20441;-79
2023/05/14 12:14:49;;;;;;;0.60;0.13;;;19.10;18.00;;;;;;4954975;28;20469;-77
2023/05/14 12:17:18;;;;;;;0.60;0.23;;;19.10;11.50;;;;;;4954881;28;20536;-77
2023/05/14 12:19:47;;;;;;;0.80;0.20;;;19.20;11.20;;;;;;4954815;28;20932;-77
2023/05/14 12:22:17;;;;;;;0.60;0.10;;;19.20;15.60;;;;;;4954621;28;20459;-77
2023/05/14 12:24:53;;;;;;;0.70;0.33;;;19.40;14.20;;;;;;4988427;28;20983;-77
2023/05/14 12:27:23;;;;;;;0.70;0.40;;;19.60;12.00;;;;;;4973037;28;20465;-77
2023/05/14 12:29:58;;;;;;;0.60;0.10;;;19.70;11.20;;;;;;4973109;28;20497;-78
2023/05/14 12:32:47;;;;;;;0.60;0.20;;;20.00;13.10;;;;;;4971121;28;20550;-78
2023/05/14 12:35:15;;;;;;;0.60;0.10;;;20.10;12.40;;;;;;4970113;28;20443;-76
2023/05/14 12:37:43;;;;;;;0.60;0.20;;;20.30;14.30;;;;;;4971891;28;20478;-76
2023/05/14 12:40:12;;;;;;;0.60;0.10;;;;;;;;;;4967442;28;20478;-77
2023/05/14 12:42:40;;;;;;;0.60;0.20;;;20.40;14.80;;;;;;4968920;28;20467;-76
2023/05/14 12:45:11;;;;;;;1.00;0.50;;;20.50;12.10;;;;;;4971697;28;20469;-76
2023/05/14 12:47:39;;;;;;;0.63;0.27;;;20.40;8.90;;;;;;4970479;28;20969;-77
2023/05/14 12:50:08;;;;;;;0.60;0.20;;;20.40;7.90;;;;;;4969985;28;21001;-76
2023/05/14 12:52:36;;;;;;;0.60;0.20;;;20.40;7.10;;;;;;4972967;28;20538;-77
2023/05/14 12:55:07;;;;;;;0.60;0.10;;;20.40;6.40;;;;;;4973666;28;20453;-76
2023/05/14 12:57:35;;;;;;;0.60;0.10;;;20.40;4.50;;;;;;4971751;28;20478;-77
2023/05/14 13:00:05;;;;;;;0.60;0.20;;;;;;;;;;4972217;28;20485;-75
2023/05/14 13:02:35;;;;;;;0.60;0.10;;;20.60;6.20;;;;;;4972742;28;20454;-74
2023/05/14 13:05:11;;;;;;;0.60;0.10;;;20.80;7.20;;;;;;4973054;28;20420;-76
2023/05/14 13:07:39;;;;;;;0.60;0.10;;;20.80;5.40;;;;;;4972987;28;20430;-72
2023/05/14 13:10:08;;;;;;;0.60;0.20;;;20.80;1.00;;;;;;4975818;28;20474;-75
2023/05/14 13:12:36;;;;;;;0.60;0.10;;;;;;;;;;4976303;28;20458;-74
2023/05/14 13:15:04;;;;;;;0.60;0.10;;;20.80;1.00;;;;;;4977062;28;20450;-75
2023/05/14 13:17:33;;;;;;;0.60;0.10;;;;;;;;;;4977076;28;20867;-76
2023/05/14 13:20:03;;;;;;;0.60;0.20;;;21.10;1.60;;;;;;4976472;28;20537;-74
2023/05/14 13:22:31;;;;;;;0.60;0.10;;;21.10;2.10;;;;;;4976416;28;20443;-74
2023/05/14 13:24:59;;;;;;;0.60;0.20;;;;;;;;;;4976870;28;20442;-74
2023/05/14 13:27:27;;;;;;;0.70;0.40;;;21.00;1.00;;;;;;4977281;28;20520;-75